createdAt,value
2023-04-11T00:00:08.114Z,95445.56
2023-04-11T00:01:09.830Z,95429.31
2023-04-11T00:02:11.642Z,95441.97
2023-04-11T00:03:13.623Z,95431.75
2023-04-11T00:04:17.182Z,95415.63
2023-04-11T00:05:18.978Z,95422.28
2023-04-11T00:06:20.676Z,95409.28
2023-04-11T00:07:22.376Z,95427.84
2023-04-11T00:08:24.120Z,95460.69
2023-04-11T00:09:25.819Z,95420.94
2023-04-11T00:10:27.632Z,95423.25
2023-04-11T00:11:29.585Z,95331.28
2023-04-11T00:12:31.246Z,95423.63
2023-04-11T00:13:32.960Z,95418.84
2023-04-11T00:14:34.719Z,95323.75
2023-04-11T00:15:36.465Z,95436.19
2023-04-11T00:16:38.202Z,95369.13
2023-04-11T00:17:39.945Z,95429.88
2023-04-11T00:18:41.615Z,95408.00
2023-04-11T00:19:43.867Z,95364.69
2023-04-11T00:20:45.557Z,95406.47
2023-04-11T00:21:47.303Z,95414.84
2023-04-11T00:22:48.950Z,95210.63
2023-04-11T00:23:52.910Z,95297.19
2023-04-11T00:24:54.884Z,95386.25
2023-04-11T00:25:56.577Z,95260.56
2023-04-11T00:26:58.272Z,95403.28
2023-04-11T00:27:59.942Z,95395.50
2023-04-11T00:29:01.689Z,95397.66
2023-04-11T00:30:05.025Z,95396.91
2023-04-11T00:31:07.251Z,95423.22
2023-04-11T00:32:09.011Z,95247.16
2023-04-11T00:33:10.754Z,95398.56
2023-04-11T00:34:12.494Z,95395.72
2023-04-11T00:35:14.277Z,95404.19
2023-04-11T00:36:16.139Z,95246.97
2023-04-11T00:37:18.316Z,95409.03
2023-04-11T00:38:20.067Z,95393.22
2023-04-11T00:39:22.264Z,95290.31
2023-04-11T00:40:23.927Z,95412.31
2023-04-11T00:41:25.663Z,95389.75
2023-04-11T00:42:27.410Z,95407.69
2023-04-11T00:43:29.090Z,95408.78
2023-04-11T00:44:30.773Z,95415.28
2023-04-11T00:45:33.536Z,95397.69
2023-04-11T00:46:35.294Z,95376.94
2023-04-11T00:47:37.101Z,95401.41
2023-04-11T00:48:38.879Z,95416.97
2023-04-11T00:49:41.321Z,95410.59
2023-04-11T00:50:43.404Z,95243.41
2023-04-11T00:51:45.155Z,95256.44
2023-04-11T00:52:49.722Z,95413.13
2023-04-11T00:53:51.493Z,95402.31
2023-04-11T00:54:53.248Z,95397.66
2023-04-11T00:55:55.034Z,95246.97
2023-04-11T00:57:02.371Z,95409.91
2023-04-11T00:58:04.328Z,95401.72
2023-04-11T00:59:06.193Z,95402.13
2023-04-11T01:00:08.726Z,95258.72
2023-04-11T01:01:10.431Z,95417.31
2023-04-11T01:02:12.222Z,95247.41
2023-04-11T01:03:14.036Z,95255.75
2023-04-11T01:04:16.124Z,95420.53
2023-04-11T01:05:18.010Z,95416.19
2023-04-11T01:06:20.440Z,95438.09
2023-04-11T01:07:24.465Z,95378.03
2023-04-11T01:08:26.970Z,95430.06
2023-04-11T01:09:29.223Z,95409.38
2023-04-11T01:10:31.420Z,95415.59
2023-04-11T01:11:34.155Z,95416.69
2023-04-11T01:12:38.213Z,95405.44
2023-04-11T01:13:41.461Z,95448.25
2023-04-11T01:14:43.335Z,95416.31
2023-04-11T01:15:45.094Z,95383.50
2023-04-11T01:16:47.701Z,95456.31
2023-04-11T01:17:49.635Z,95423.41
2023-04-11T01:18:51.555Z,95402.66
2023-04-11T01:19:53.321Z,95409.50
2023-04-11T01:20:55.098Z,95412.31
2023-04-11T01:21:58.685Z,95417.53
2023-04-11T01:23:02.348Z,95427.13
2023-04-11T01:24:04.328Z,95418.78
2023-04-11T01:25:06.572Z,95252.50
2023-04-11T01:26:08.296Z,95414.31
2023-04-11T01:27:10.216Z,95424.34
2023-04-11T01:28:11.929Z,95372.09
2023-04-11T01:29:13.662Z,95415.69
2023-04-11T01:30:15.330Z,95309.03
2023-04-11T01:31:17.027Z,95408.88
2023-04-11T01:32:18.836Z,95273.06
2023-04-11T01:33:20.754Z,95409.81
2023-04-11T01:34:25.497Z,95404.22
2023-04-11T01:35:27.176Z,95386.59
2023-04-11T01:36:30.700Z,95426.16
2023-04-11T01:37:32.552Z,95241.06
2023-04-11T01:38:34.245Z,95406.03
2023-04-11T01:39:36.111Z,95404.38
2023-04-11T01:40:38.613Z,95425.25
2023-04-11T01:41:41.825Z,95390.00
2023-04-11T01:42:44.690Z,95250.97
2023-04-11T01:43:46.636Z,95257.41
2023-04-11T01:44:50.429Z,95402.09
2023-04-11T01:45:52.858Z,95248.50
2023-04-11T01:46:54.895Z,95400.88
2023-04-11T01:47:56.963Z,95398.09
2023-04-11T01:48:59.984Z,95383.72
2023-04-11T01:50:01.950Z,95383.56
2023-04-11T01:51:22.333Z,95380.78
2023-04-11T01:52:24.002Z,95306.28
2023-04-11T01:53:25.751Z,95373.94
2023-04-11T01:54:27.400Z,95393.59
2023-04-11T01:55:29.076Z,95390.66
2023-04-11T01:56:30.702Z,95398.84
2023-04-11T01:57:32.501Z,95257.00
2023-04-11T01:58:34.191Z,95386.03
2023-04-11T01:59:36.143Z,95179.97
2023-04-11T02:00:37.769Z,95406.72
2023-04-11T02:01:43.368Z,95251.13
2023-04-11T02:02:45.342Z,95237.06
2023-04-11T02:03:47.266Z,95385.09
2023-04-11T02:04:48.971Z,95259.31
2023-04-11T02:05:50.724Z,95387.25
2023-04-11T02:06:52.441Z,95393.63
2023-04-11T02:07:54.163Z,95375.81
2023-04-11T02:08:56.044Z,95389.75
2023-04-11T02:09:58.668Z,95361.59
2023-04-11T02:11:00.410Z,95280.78
2023-04-11T02:12:02.107Z,95392.81
2023-04-11T02:13:03.940Z,95388.19
2023-04-11T02:14:05.624Z,95394.53
2023-04-11T02:15:07.845Z,95394.53
2023-04-11T02:16:11.786Z,95389.59
2023-04-11T02:17:13.729Z,95369.47
2023-04-11T02:18:15.404Z,95383.56
2023-04-11T02:19:17.087Z,95232.31
2023-04-11T02:20:18.791Z,95375.66
2023-04-11T02:21:20.528Z,95369.03
2023-04-11T02:22:22.257Z,95243.72
2023-04-11T02:23:24.385Z,95232.13
2023-04-11T02:24:28.464Z,95392.22
2023-04-11T02:25:33.048Z,95385.53
2023-04-11T02:26:34.776Z,95315.69
2023-04-11T02:27:36.471Z,95413.47
2023-04-11T02:28:38.158Z,95383.47
2023-04-11T02:29:39.919Z,95237.03
2023-04-11T02:30:41.733Z,95386.09
2023-04-11T02:31:43.610Z,95270.41
2023-04-11T02:32:45.424Z,95376.28
2023-04-11T02:33:47.208Z,95388.47
2023-04-11T02:34:48.893Z,95375.34
2023-04-11T02:35:50.647Z,95384.47
2023-04-11T02:36:52.681Z,95381.34
2023-04-11T02:37:54.394Z,95384.28
2023-04-11T02:38:56.243Z,95362.81
2023-04-11T02:39:58.522Z,95377.19
2023-04-11T02:41:00.374Z,95374.59
2023-04-11T02:42:02.176Z,95242.78
2023-04-11T02:43:04.023Z,95278.16
2023-04-11T02:44:05.977Z,95392.22
2023-04-11T02:45:11.325Z,95382.34
2023-04-11T02:46:13.459Z,95391.59
2023-04-11T02:47:15.527Z,95381.09
2023-04-11T02:48:17.317Z,95383.41
2023-04-11T02:49:19.035Z,95385.22
2023-04-11T02:50:20.805Z,95374.25
2023-04-11T02:51:22.530Z,95371.16
2023-04-11T02:52:24.315Z,95383.09
2023-04-11T02:53:26.021Z,95224.59
2023-04-11T02:54:27.719Z,95344.16
2023-04-11T02:55:29.473Z,95251.31
2023-04-11T02:56:31.149Z,95399.19
2023-04-11T02:57:32.878Z,95235.94
2023-04-11T02:58:34.502Z,95382.97
2023-04-11T02:59:36.281Z,95373.91
2023-04-11T03:00:37.903Z,95371.28
2023-04-11T03:01:39.725Z,95371.28
2023-04-11T03:02:41.763Z,95375.59
2023-04-11T03:03:44.542Z,95227.00
2023-04-11T03:04:46.345Z,95370.34
2023-04-11T03:05:48.079Z,95337.25
2023-04-11T03:06:49.814Z,95220.84
2023-04-11T03:07:51.580Z,95404.94
2023-04-11T03:08:53.414Z,95357.06
2023-04-11T03:09:55.324Z,95193.66
2023-04-11T03:10:57.000Z,95244.91
2023-04-11T03:11:58.722Z,95376.03
2023-04-11T03:13:00.419Z,95366.03
2023-04-11T03:14:02.414Z,95233.63
2023-04-11T03:15:04.446Z,95365.72
2023-04-11T03:16:06.680Z,95251.09
2023-04-11T03:17:08.476Z,95371.13
2023-04-11T03:18:10.616Z,95364.44
2023-04-11T03:19:12.290Z,95210.78
2023-04-11T03:20:13.983Z,95392.75
2023-04-11T03:21:15.680Z,95357.16
2023-04-11T03:22:17.473Z,95383.59
2023-04-11T03:23:19.197Z,95372.66
2023-04-11T03:24:20.926Z,95377.88
2023-04-11T03:25:22.691Z,95378.63
2023-04-11T03:26:24.707Z,95386.09
2023-04-11T03:27:26.467Z,95380.81
2023-04-11T03:28:28.148Z,95373.91
2023-04-11T03:29:29.897Z,95355.63
2023-04-11T03:30:31.864Z,95339.06
2023-04-11T03:31:33.756Z,95394.84
2023-04-11T03:32:35.489Z,95351.91
2023-04-11T03:33:37.744Z,95222.44
2023-04-11T03:34:39.410Z,95352.81
2023-04-11T03:35:41.155Z,95312.66
2023-04-11T03:36:42.843Z,95374.31
2023-04-11T03:37:44.595Z,95253.50
2023-04-11T03:38:46.277Z,95359.78
2023-04-11T03:39:47.936Z,95373.19
2023-04-11T03:40:49.634Z,95280.38
2023-04-11T03:41:51.352Z,95371.06
2023-04-11T03:42:53.053Z,95235.75
2023-04-11T03:43:54.767Z,95359.34
2023-04-11T03:44:56.410Z,95392.38
2023-04-11T03:45:58.192Z,95292.09
2023-04-11T03:46:59.954Z,95353.91
2023-04-11T03:48:01.712Z,95360.41
2023-04-11T03:49:03.482Z,95369.53
2023-04-11T03:50:07.121Z,95364.13
2023-04-11T03:51:08.870Z,95235.25
2023-04-11T03:52:10.596Z,95381.06
2023-04-11T03:53:12.433Z,95367.19
2023-04-11T03:54:14.098Z,95353.25
2023-04-11T03:55:15.835Z,95311.53
2023-04-11T03:56:17.500Z,95217.75
2023-04-11T03:57:19.153Z,95375.34
2023-04-11T03:58:20.876Z,95327.88
2023-04-11T03:59:22.725Z,95397.56
2023-04-11T04:00:24.523Z,95372.56
2023-04-11T04:01:26.284Z,95391.38
2023-04-11T04:02:28.206Z,95362.78
2023-04-11T04:03:30.222Z,95372.34
2023-04-11T04:04:33.198Z,95351.06
2023-04-11T04:05:34.906Z,95382.22
2023-04-11T04:06:36.606Z,95236.41
2023-04-11T04:07:38.315Z,95373.63
2023-04-11T04:08:40.561Z,95372.41
2023-04-11T04:09:42.203Z,95314.28
2023-04-11T04:10:43.861Z,95406.03
2023-04-11T04:11:45.474Z,95369.47
2023-04-11T04:12:47.111Z,95380.13
2023-04-11T04:13:48.760Z,95373.94
2023-04-11T04:14:50.406Z,95376.88
2023-04-11T04:15:52.108Z,95226.34
2023-04-11T04:16:53.904Z,95360.97
2023-04-11T04:17:55.731Z,95375.66
2023-04-11T04:18:57.521Z,95377.66
2023-04-11T04:19:59.154Z,95369.47
2023-04-11T04:21:00.810Z,95372.41
2023-04-11T04:22:02.502Z,95241.41
2023-04-11T04:23:04.192Z,95307.19
2023-04-11T04:24:06.232Z,95248.50
2023-04-11T04:25:08.395Z,95370.38
2023-04-11T04:26:10.100Z,95379.25
2023-04-11T04:27:12.766Z,95250.22
2023-04-11T04:28:14.407Z,95354.22
2023-04-11T04:29:16.095Z,95386.19
2023-04-11T04:30:18.449Z,95368.13
2023-04-11T04:31:20.152Z,95357.13
2023-04-11T04:32:23.810Z,95290.72
2023-04-11T04:33:27.540Z,95319.03
2023-04-11T04:34:29.439Z,95153.16
2023-04-11T04:35:31.226Z,95243.16
2023-04-11T04:36:32.921Z,95379.88
2023-04-11T04:37:34.619Z,95379.25
2023-04-11T04:38:36.269Z,95387.13
2023-04-11T04:39:37.970Z,95372.00
2023-04-11T04:40:39.692Z,95369.22
2023-04-11T04:41:41.321Z,95271.56
2023-04-11T04:42:43.104Z,95359.66
2023-04-11T04:43:44.793Z,95220.94
2023-04-11T04:44:46.488Z,95378.16
2023-04-11T04:45:48.228Z,95359.31
2023-04-11T04:46:58.710Z,95292.00
2023-04-11T04:48:00.457Z,95222.81
2023-04-11T04:49:06.522Z,95358.25
2023-04-11T04:50:08.601Z,95358.28
2023-04-11T04:51:10.352Z,95364.59
2023-04-11T04:52:15.645Z,95378.69
2023-04-11T04:53:17.366Z,95226.22
2023-04-11T04:54:19.082Z,95365.56
2023-04-11T04:55:20.763Z,95349.66
2023-04-11T04:56:22.516Z,95200.00
2023-04-11T04:57:28.384Z,95371.56
2023-04-11T04:58:30.104Z,95347.19
2023-04-11T04:59:31.812Z,95350.59
2023-04-11T05:00:33.513Z,95309.78
2023-04-11T05:01:35.401Z,95385.94
2023-04-11T05:02:37.354Z,95358.78
2023-04-11T05:03:39.351Z,95225.03
2023-04-11T05:04:41.168Z,95266.53
2023-04-11T05:05:42.785Z,95377.75
2023-04-11T05:06:44.460Z,95371.59
2023-04-11T05:07:46.195Z,95210.22
2023-04-11T05:08:47.928Z,95254.81
2023-04-11T05:09:49.640Z,95302.50
2023-04-11T05:10:51.317Z,95360.00
2023-04-11T05:11:53.035Z,95350.41
2023-04-11T05:12:55.396Z,95379.94
2023-04-11T05:13:57.454Z,95338.38
2023-04-11T05:14:59.484Z,95362.03
2023-04-11T05:16:01.211Z,95363.88
2023-04-11T05:17:03.046Z,95208.34
2023-04-11T05:18:04.765Z,95364.34
2023-04-11T05:19:06.475Z,95345.78
2023-04-11T05:20:08.590Z,95345.19
2023-04-11T05:21:10.371Z,95347.66
2023-04-11T05:22:12.047Z,95306.88
2023-04-11T05:23:13.698Z,95363.38
2023-04-11T05:24:15.486Z,95267.19
2023-04-11T05:25:17.347Z,95371.72
2023-04-11T05:26:19.084Z,95227.34
2023-04-11T05:27:20.782Z,95362.00
2023-04-11T05:28:22.477Z,95353.97
2023-04-11T05:29:24.272Z,95358.31
2023-04-11T05:30:26.264Z,95236.13
2023-04-11T05:31:28.142Z,95228.88
2023-04-11T05:32:29.837Z,95359.38
2023-04-11T05:33:31.627Z,95364.78
2023-04-11T05:34:33.355Z,95247.13
2023-04-11T05:35:35.157Z,95351.78
2023-04-11T05:36:36.935Z,95368.78
2023-04-11T05:37:38.668Z,95202.66
2023-04-11T05:38:41.309Z,95357.50
2023-04-11T05:39:43.065Z,95165.94
2023-04-11T05:40:44.785Z,95218.22
2023-04-11T05:41:46.522Z,95346.31
2023-04-11T05:42:48.180Z,95343.84
2023-04-11T05:43:50.027Z,95358.38
2023-04-11T05:44:51.771Z,95338.75
2023-04-11T05:45:53.480Z,95240.28
2023-04-11T05:46:55.211Z,95325.28
2023-04-11T05:47:56.991Z,95352.03
2023-04-11T05:48:59.643Z,95330.84
2023-04-11T05:50:01.425Z,95334.81
2023-04-11T05:51:03.163Z,95225.13
2023-04-11T05:52:05.010Z,95331.25
2023-04-11T05:53:07.192Z,95343.00
2023-04-11T05:54:08.899Z,95319.56
2023-04-11T05:55:11.136Z,95356.94
2023-04-11T05:56:12.946Z,95203.81
2023-04-11T05:57:14.704Z,95318.94
2023-04-11T05:58:16.407Z,95359.34
2023-04-11T05:59:21.584Z,95338.78
2023-04-11T06:00:27.090Z,95325.06
2023-04-11T06:01:28.767Z,95331.28
2023-04-11T06:02:30.544Z,95362.19
2023-04-11T06:03:32.433Z,95227.25
2023-04-11T06:04:34.502Z,95349.97
2023-04-11T06:05:36.767Z,95322.81
2023-04-11T06:06:38.411Z,95313.97
2023-04-11T06:07:40.478Z,95225.13
2023-04-11T06:08:42.237Z,95333.09
2023-04-11T06:09:44.008Z,95337.00
2023-04-11T06:10:45.860Z,95334.53
2023-04-11T06:11:47.690Z,95182.59
2023-04-11T06:12:49.357Z,95312.88
2023-04-11T06:13:51.133Z,95329.78
2023-04-11T06:14:52.836Z,95324.75
2023-04-11T06:15:54.664Z,95284.50
2023-04-11T06:16:56.550Z,95322.97
2023-04-11T06:17:58.370Z,95324.81
2023-04-11T06:19:00.089Z,95316.22
2023-04-11T06:20:03.528Z,95320.22
2023-04-11T06:21:06.601Z,95172.41
2023-04-11T06:22:08.339Z,95188.50
2023-04-11T06:23:10.001Z,95311.13
2023-04-11T06:24:11.815Z,95284.00
2023-04-11T06:25:13.563Z,95170.91
2023-04-11T06:26:15.254Z,95304.81
2023-04-11T06:27:17.006Z,95304.13
2023-04-11T06:28:18.668Z,95335.19
2023-04-11T06:29:20.356Z,95293.03
2023-04-11T06:30:22.043Z,95229.19
2023-04-11T06:31:23.869Z,95288.44
2023-04-11T06:32:25.761Z,95181.06
2023-04-11T06:33:27.435Z,95314.88
2023-04-11T06:34:29.123Z,95290.09
2023-04-11T06:35:30.986Z,95215.00
2023-04-11T06:36:34.035Z,95278.47
2023-04-11T06:37:35.782Z,95299.38
2023-04-11T06:38:37.500Z,95304.47
2023-04-11T06:39:39.341Z,95307.97
2023-04-11T06:40:41.244Z,95284.28
2023-04-11T06:41:43.428Z,95327.22
2023-04-11T06:42:45.250Z,95159.94
2023-04-11T06:43:47.155Z,95302.16
2023-04-11T06:44:48.898Z,95300.25
2023-04-11T06:45:50.680Z,95209.56
2023-04-11T06:46:52.568Z,95264.63
2023-04-11T06:47:54.564Z,95161.28
2023-04-11T06:48:56.428Z,95167.34
2023-04-11T06:49:58.240Z,95159.16
2023-04-11T06:51:00.186Z,95285.22
2023-04-11T06:52:02.023Z,95262.44
2023-04-11T06:53:03.941Z,95174.06
2023-04-11T06:54:05.913Z,95253.81
2023-04-11T06:55:08.097Z,95303.91
2023-04-11T06:56:10.331Z,95310.47
2023-04-11T06:57:12.039Z,95205.13
2023-04-11T06:58:13.858Z,95167.31
2023-04-11T06:59:15.585Z,95307.00
2023-04-11T07:00:17.758Z,95320.97
2023-04-11T07:01:19.461Z,95312.00
2023-04-11T07:02:21.298Z,95158.00
2023-04-11T07:03:23.249Z,95311.34
2023-04-11T07:04:25.164Z,95285.53
2023-04-11T07:05:26.941Z,95182.34
2023-04-11T07:06:28.674Z,95289.09
2023-04-11T07:07:30.384Z,95294.00
2023-04-11T07:08:32.143Z,95301.09
2023-04-11T07:09:33.886Z,95308.13
2023-04-11T07:10:35.548Z,95295.03
2023-04-11T07:11:37.234Z,95278.38
2023-04-11T07:12:38.968Z,95167.84
2023-04-11T07:13:40.846Z,95277.81
2023-04-11T07:14:42.589Z,95300.03
2023-04-11T07:15:44.423Z,95283.75
2023-04-11T07:16:46.296Z,95175.69
2023-04-11T07:17:51.447Z,95149.25
2023-04-11T07:18:55.384Z,95193.88
2023-04-11T07:19:57.089Z,95281.66
2023-04-11T07:20:58.958Z,95175.97
2023-04-11T07:22:00.653Z,95163.66
2023-04-11T07:23:02.380Z,95300.50
2023-04-11T07:24:05.751Z,95284.41
2023-04-11T07:25:07.612Z,95290.69
2023-04-11T07:26:09.862Z,95270.44
2023-04-11T07:27:11.499Z,95219.81
2023-04-11T07:28:13.213Z,95303.56
2023-04-11T07:29:15.101Z,95274.19
2023-04-11T07:30:17.254Z,95260.22
2023-04-11T07:31:19.074Z,95297.84
2023-04-11T07:32:20.840Z,95271.13
2023-04-11T07:33:22.506Z,95291.28
2023-04-11T07:34:24.365Z,95277.16
2023-04-11T07:35:26.155Z,95277.13
2023-04-11T07:36:27.860Z,95292.47
2023-04-11T07:37:29.575Z,95138.50
2023-04-11T07:38:31.244Z,95268.31
2023-04-11T07:39:34.406Z,95145.34
2023-04-11T07:40:36.102Z,95287.63
2023-04-11T07:41:38.340Z,95178.03
2023-04-11T07:42:41.039Z,95290.63
2023-04-11T07:43:42.712Z,95138.28
2023-04-11T07:44:44.416Z,95306.66
2023-04-11T07:45:46.206Z,95254.59
2023-04-11T07:46:47.903Z,95289.28
2023-04-11T07:47:49.769Z,95153.34
2023-04-11T07:48:51.554Z,95280.22
2023-04-11T07:49:53.324Z,95240.75
2023-04-11T07:50:55.329Z,95289.75
2023-04-11T07:51:57.175Z,95291.28
2023-04-11T07:52:58.947Z,95152.63
2023-04-11T07:54:00.693Z,95285.06
2023-04-11T07:55:02.835Z,95257.44
2023-04-11T07:56:04.836Z,95238.84
2023-04-11T07:57:06.594Z,95181.56
2023-04-11T07:58:08.564Z,95276.81
2023-04-11T07:59:10.330Z,95287.53
2023-04-11T08:00:19.908Z,95294.84
2023-04-11T08:01:23.213Z,95274.69
2023-04-11T08:02:25.298Z,95056.31
2023-04-11T08:03:27.561Z,95281.03
2023-04-11T08:04:33.120Z,95279.84
2023-04-11T08:05:36.694Z,95277.06
2023-04-11T08:06:38.405Z,95276.06
2023-04-11T08:07:40.160Z,95273.84
2023-04-11T08:08:41.850Z,95259.84
2023-04-11T08:09:43.678Z,95264.72
2023-04-11T08:10:45.478Z,95110.72
2023-04-11T08:11:47.133Z,95283.91
2023-04-11T08:12:49.319Z,95283.91
2023-04-11T08:13:50.972Z,95259.44
2023-04-11T08:14:52.663Z,95249.91
2023-04-11T08:15:54.444Z,95263.56
2023-04-11T08:16:56.212Z,95259.50
2023-04-11T08:17:58.029Z,95260.97
2023-04-11T08:18:59.754Z,95259.19
2023-04-11T08:20:02.252Z,95112.03
2023-04-11T08:21:04.488Z,95143.78
2023-04-11T08:22:06.202Z,95241.78
2023-04-11T08:23:08.010Z,95236.91
2023-04-11T08:24:09.902Z,95129.03
2023-04-11T08:25:12.463Z,95237.63
2023-04-11T08:26:14.180Z,95237.84
2023-04-11T08:27:15.920Z,95205.22
2023-04-11T08:28:17.617Z,95258.00
2023-04-11T08:29:19.356Z,95232.88
2023-04-11T08:30:21.128Z,95244.50
2023-04-11T08:31:23.054Z,95124.94
2023-04-11T08:32:25.394Z,95106.59
2023-04-11T08:33:27.196Z,95224.22
2023-04-11T08:34:29.044Z,95235.00
2023-04-11T08:35:30.965Z,95232.72
2023-04-11T08:36:32.765Z,95227.38
2023-04-11T08:37:34.537Z,95236.84
2023-04-11T08:38:37.059Z,95227.16
2023-04-11T08:39:39.104Z,95246.28
2023-04-11T08:40:40.876Z,95241.72
2023-04-11T08:41:42.738Z,95189.28
2023-04-11T08:42:44.742Z,95211.53
2023-04-11T08:43:46.444Z,95225.59
2023-04-11T08:44:59.219Z,95190.34
2023-04-11T08:46:04.647Z,95226.63
2023-04-11T08:47:07.613Z,95229.19
2023-04-11T08:48:09.774Z,95189.09
2023-04-11T08:49:11.516Z,95104.50
2023-04-11T08:50:13.264Z,95211.31
2023-04-11T08:51:22.389Z,95231.72
2023-04-11T08:52:25.330Z,95218.47
2023-04-11T08:53:28.071Z,95212.84
2023-04-11T08:54:30.443Z,95112.47
2023-04-11T08:55:35.031Z,95206.72
2023-04-11T08:56:36.772Z,95127.56
2023-04-11T08:57:38.527Z,95205.16
2023-04-11T08:58:41.898Z,95211.56
2023-04-11T08:59:51.776Z,95213.31
2023-04-11T09:00:53.511Z,95206.19
2023-04-11T09:02:07.889Z,95219.22
2023-04-11T09:03:12.220Z,95108.88
2023-04-11T09:04:14.064Z,95200.56
2023-04-11T09:05:29.029Z,95207.22
2023-04-11T09:06:31.716Z,95106.59
2023-04-11T09:07:48.968Z,95210.22
2023-04-11T09:08:50.690Z,95191.78
2023-04-11T09:09:52.436Z,95200.25
2023-04-11T09:11:01.535Z,95072.38
2023-04-11T09:12:03.998Z,95188.97
2023-04-11T09:13:32.097Z,95199.50
2023-04-11T09:14:34.221Z,95192.38
2023-04-11T09:15:35.994Z,95050.47
2023-04-11T09:16:53.132Z,95191.38
2023-04-11T09:17:57.592Z,95189.31
2023-04-11T09:19:00.802Z,95168.63
2023-04-11T09:20:16.287Z,95172.97
2023-04-11T09:21:19.357Z,95208.66
2023-04-11T09:22:21.097Z,95199.66
2023-04-11T09:23:23.862Z,95051.97
2023-04-11T09:24:27.626Z,95165.69
2023-04-11T09:25:29.431Z,95034.31
2023-04-11T09:26:31.099Z,95171.31
2023-04-11T09:27:32.809Z,95171.78
2023-04-11T09:28:45.034Z,95181.41
2023-04-11T09:29:48.598Z,95156.41
2023-04-11T09:30:51.971Z,95190.53
2023-04-11T09:31:53.708Z,95152.44
2023-04-11T09:32:55.470Z,95155.31
2023-04-11T09:33:59.965Z,95145.03
2023-04-11T09:35:18.944Z,95135.84
2023-04-11T09:36:23.313Z,95181.13
2023-04-11T09:37:25.046Z,95173.00
2023-04-11T09:38:31.787Z,95066.13
2023-04-11T09:39:33.545Z,95149.91
2023-04-11T09:40:43.373Z,95130.53
2023-04-11T09:41:45.528Z,95148.41
2023-04-11T09:42:48.555Z,95171.72
2023-04-11T09:43:54.952Z,95170.22
2023-04-11T09:44:57.101Z,95165.69
2023-04-11T09:46:09.639Z,95015.31
2023-04-11T09:47:11.580Z,95171.97
2023-04-11T09:48:13.677Z,95149.09
2023-04-11T09:49:15.499Z,95104.41
2023-04-11T09:50:17.586Z,95161.72
2023-04-11T09:51:34.121Z,95159.97
2023-04-11T09:52:36.969Z,95172.69
2023-04-11T09:53:38.886Z,95141.63
2023-04-11T09:54:40.706Z,95018.56
2023-04-11T09:55:42.445Z,95152.44
2023-04-11T09:56:44.355Z,95144.50
2023-04-11T09:57:48.555Z,95150.38
2023-04-11T09:58:50.978Z,95017.81
2023-04-11T09:59:52.865Z,95095.53
2023-04-11T10:00:56.057Z,95149.72
2023-04-11T10:01:57.919Z,95139.53
2023-04-11T10:02:59.981Z,95127.00
2023-04-11T10:04:02.011Z,95159.19
2023-04-11T10:05:04.769Z,95133.91
2023-04-11T10:06:11.968Z,95151.78
2023-04-11T10:07:14.814Z,94980.75
2023-04-11T10:08:31.035Z,95093.06
2023-04-11T10:09:33.182Z,95131.63
2023-04-11T10:10:36.078Z,95135.19
2023-04-11T10:11:41.719Z,95108.91
2023-04-11T10:12:43.606Z,95123.44
2023-04-11T10:13:46.784Z,95128.75
2023-04-11T10:14:48.978Z,94978.22
2023-04-11T10:16:14.009Z,95126.75
2023-04-11T10:17:22.531Z,95112.97
2023-04-11T10:18:25.565Z,95101.38
2023-04-11T10:19:27.248Z,95011.22
2023-04-11T10:20:31.765Z,95117.03
2023-04-11T10:21:33.469Z,95131.34
2023-04-11T10:22:41.406Z,95129.72
2023-04-11T10:24:09.289Z,95111.56
2023-04-11T10:25:20.962Z,95107.88
2023-04-11T10:26:59.146Z,95114.44
2023-04-11T10:28:01.317Z,95107.69
2023-04-11T10:29:03.274Z,95054.13
2023-04-11T10:30:05.510Z,94965.38
2023-04-11T10:31:10.918Z,95068.66
2023-04-11T10:32:15.432Z,95108.75
2023-04-11T10:33:20.693Z,94923.34
2023-04-11T10:34:22.470Z,95071.44
2023-04-11T10:35:24.464Z,95079.41
2023-04-11T10:36:26.166Z,95078.03
2023-04-11T10:37:35.222Z,94963.75
2023-04-11T10:38:42.723Z,95100.31
2023-04-11T10:39:50.497Z,95086.47
2023-04-11T10:41:14.738Z,95081.53
2023-04-11T10:42:29.212Z,95029.34
2023-04-11T10:43:30.971Z,95040.88
2023-04-11T10:44:32.687Z,95049.91
2023-04-11T10:45:34.558Z,95076.56
2023-04-11T10:46:44.990Z,95061.56
2023-04-11T10:47:58.962Z,95073.66
2023-04-11T10:49:02.501Z,95066.28
2023-04-11T10:50:04.608Z,95070.94
2023-04-11T10:51:23.460Z,94959.03
2023-04-11T10:52:25.273Z,95039.88
2023-04-11T10:53:34.545Z,95031.06
2023-04-11T10:54:36.232Z,94966.94
2023-04-11T10:55:48.888Z,95064.34
2023-04-11T10:56:54.855Z,95080.97
2023-04-11T10:58:18.933Z,95074.28
2023-04-11T10:59:32.775Z,95062.94
2023-04-11T11:00:46.777Z,95070.19
2023-04-11T11:01:55.096Z,95046.72
2023-04-11T11:02:57.825Z,95046.69
2023-04-11T11:03:59.976Z,94930.47
2023-04-11T11:05:02.470Z,95020.16
2023-04-11T11:06:09.128Z,94924.88
2023-04-11T11:07:14.946Z,95041.13
2023-04-11T11:08:39.744Z,95026.09
2023-04-11T11:09:41.414Z,94928.72
2023-04-11T11:10:45.152Z,95044.69
2023-04-11T11:12:12.156Z,94930.94
2023-04-11T11:13:17.103Z,95047.66
2023-04-11T11:14:28.768Z,95021.59
2023-04-11T11:15:34.186Z,95018.88
2023-04-11T11:16:36.468Z,95029.31
2023-04-11T11:17:38.337Z,95036.66
2023-04-11T11:18:40.269Z,95022.91
2023-04-11T11:19:46.292Z,95041.38
2023-04-11T11:20:48.124Z,95016.31
2023-04-11T11:21:51.243Z,95019.69
2023-04-11T11:23:06.934Z,95024.09
2023-04-11T11:24:08.696Z,95019.31
2023-04-11T11:25:10.981Z,94993.66
2023-04-11T11:26:12.745Z,95020.09
2023-04-11T11:27:22.445Z,94886.34
2023-04-11T11:28:24.634Z,95005.69
2023-04-11T11:29:38.565Z,95015.59
2023-04-11T11:30:51.661Z,95004.31
2023-04-11T11:31:54.711Z,94987.94
2023-04-11T11:32:56.619Z,94979.41
2023-04-11T11:34:08.854Z,94985.88
2023-04-11T11:35:20.481Z,94998.63
2023-04-11T11:36:22.356Z,94989.94
2023-04-11T11:37:24.185Z,94979.84
2023-04-11T11:38:27.833Z,94999.56
2023-04-11T11:39:31.061Z,94975.34
2023-04-11T11:40:32.790Z,94996.47
2023-04-11T11:41:35.326Z,94948.50
2023-04-11T11:42:37.159Z,94974.69
2023-04-11T11:43:38.976Z,94998.94
2023-04-11T11:44:40.832Z,94982.41
2023-04-11T11:45:43.356Z,94844.06
2023-04-11T11:47:03.107Z,94985.25
2023-04-11T11:48:04.978Z,95004.63
2023-04-11T11:49:08.476Z,94997.75
2023-04-11T11:50:10.581Z,95003.09
2023-04-11T11:51:12.270Z,94993.97
2023-04-11T11:52:40.052Z,94846.00
2023-04-11T11:53:41.771Z,94967.59
2023-04-11T11:54:47.316Z,94973.09
2023-04-11T11:55:49.491Z,94845.78
2023-04-11T11:56:51.863Z,94832.78
2023-04-11T11:57:53.854Z,94852.50
2023-04-11T11:58:55.755Z,94976.66
2023-04-11T12:00:00.826Z,94975.72
2023-04-11T12:01:02.646Z,94973.81
2023-04-11T12:02:04.393Z,94881.09
2023-04-11T12:03:08.475Z,94989.22
2023-04-11T12:04:10.483Z,94845.28
2023-04-11T12:05:12.793Z,94821.00
2023-04-11T12:06:14.619Z,94892.69
2023-04-11T12:07:21.639Z,94968.00
2023-04-11T12:08:24.693Z,94845.91
2023-04-11T12:09:30.789Z,94949.47
2023-04-11T12:10:43.253Z,94877.91
2023-04-11T12:11:45.024Z,94971.16
2023-04-11T12:14:21.836Z,94954.44
2023-04-11T12:15:24.060Z,94836.81
2023-04-11T12:16:25.931Z,94958.50
2023-04-11T12:17:36.301Z,94965.28
2023-04-11T12:18:42.040Z,94939.94
2023-04-11T12:19:43.711Z,94953.47
2023-04-11T12:20:45.429Z,94850.09
2023-04-11T12:21:47.141Z,94957.44
2023-04-11T12:22:48.890Z,94880.09